TDPD/DOM METAR and TAF weather

Enter ICAO airport designator
Station Type Date Time Source
TDPD METAR 2019/02/18 01:00 UTC NOAA

TDPD 180100Z 12006KT 9999 BKN020 25/19 Q1019


Station Type Date Time Source
TDPD Decoded METAR 2019/02/18 01:00 UTC NOAA

Melville Hall Airport, Dominica (TDPD) 15-32N 061-18W 14M
Feb 17, 2019 - 08:00 PM EST / 2019.02.18 0100 UTC
Wind: from the ESE (120 degrees) at 7 MPH (6 KT):0
Visibility: greater than 7 mile(s):0
Sky conditions: mostly cloudy
Temperature: 77 F (25 C)
Dew Point: 66 F (19 C)
Relative Humidity: 69%
Pressure (altimeter): 30.09 in. Hg (1019 hPa)
ob: TDPD 180100Z 12006KT 9999 BKN020 25/19 Q1019
cycle: 1

Station Type Date Time Source
TDPD TAF 2019/02/17 18:50 UTC NOAA

TAF TDPD 171700Z 1718/1818 11012KTKT 9999 SCT018 PROB30
TEMPO 1719/1723 BKN015


Example: see airport list